Time;durP1;ratioP1;P1;durP2;ratioP2;P2;SDS_P1;SDS_P2;PMS_P1;PMS_P2;Temp;Humidity;BMP_temperature;BMP_pressure;BME280_temperature;BME280_humidity;BME280_pressure;Samples;Min_cycle;Max_cycle;Signal;HPM_P1;HPM_P2
2021/06/25 00:06:25;;;;;;;1999.90;999.90;;;;;;;19.67;74.51;101347.38;15338623;29;20135;-64
2021/06/25 00:13:58;;;;;;;1999.90;999.90;;;;;;;19.69;74.32;101336.50;15348656;29;20071;-63
2021/06/25 00:21:30;;;;;;;1999.90;999.90;;;;;;;19.64;74.58;101344.50;15335627;29;20052;-63
2021/06/25 00:29:04;;;;;;;1999.90;999.90;;;;;;;19.54;74.90;101346.75;15342143;28;20122;-63
2021/06/25 00:36:36;;;;;;;1999.90;999.90;;;;;;;19.52;75.17;101335.00;15361992;28;20048;-63
2021/06/25 00:44:16;;;;;;;1999.90;999.90;;;;;;;19.54;75.22;101326.13;15347771;29;20062;-64
2021/06/25 00:51:48;;;;;;;1999.90;999.90;;;;;;;19.44;75.39;101318.28;15355754;29;20047;-63
2021/06/25 00:59:22;;;;;;;1999.90;999.90;;;;;;;19.50;75.21;101311.09;15332239;29;20075;-62
2021/06/25 01:06:54;;;;;;;1999.90;999.90;;;;;;;19.43;75.72;101319.47;15353949;29;20562;-65
2021/06/25 01:14:27;;;;;;;1999.90;999.90;;;;;;;19.46;75.43;101313.84;15369186;28;20122;-63
2021/06/25 01:22:01;;;;;;;1999.90;999.90;;;;;;;19.45;74.56;101320.72;15344787;29;20405;-63
2021/06/25 01:29:33;;;;;;;1999.90;999.90;;;;;;;19.42;74.50;101298.03;15338726;29;20078;-64
2021/06/25 01:37:06;;;;;;;1999.90;999.90;;;;;;;19.24;75.49;101284.41;15339004;28;20061;-64
2021/06/25 01:44:39;;;;;;;1999.90;999.90;;;;;;;19.17;75.81;101261.63;15356609;28;20103;-63
2021/06/25 01:52:17;;;;;;;1999.90;999.90;;;;;;;18.94;76.18;101284.28;15339886;29;20409;-64
2021/06/25 01:59:50;;;;;;;1999.90;999.90;;;;;;;19.02;76.31;101274.72;15341277;29;20130;-63
2021/06/25 02:07:23;;;;;;;1999.90;999.90;;;;;;;18.70;77.47;101274.16;15356319;29;20075;-62
2021/06/25 02:14:55;;;;;;;1999.90;999.90;;;;;;;18.50;78.61;101268.88;15331520;29;20109;-62
2021/06/25 02:22:29;;;;;;;1999.90;999.90;;;;;;;18.86;77.25;101248.59;15349251;28;20048;-62
2021/06/25 02:30:01;;;;;;;1999.90;999.90;;;;;;;18.89;77.11;101250.66;15364795;29;20524;-64
2021/06/25 02:37:34;;;;;;;1999.90;999.90;;;;;;;18.72;78.00;101251.16;15349532;29;20468;-63
2021/06/25 02:45:08;;;;;;;1999.90;999.90;;;;;;;18.81;77.74;101248.09;15363106;28;20503;-63
2021/06/25 02:52:42;;;;;;;1999.90;999.90;;;;;;;18.97;77.33;101229.81;15354960;29;20054;-63
2021/06/25 03:00:17;;;;;;;1999.90;999.90;;;;;;;19.00;77.57;101236.72;15330640;29;20035;-63
2021/06/25 03:07:50;;;;;;;1999.90;999.90;;;;;;;18.85;78.39;101241.28;15349314;28;20075;-64
2021/06/25 03:15:22;;;;;;;1999.90;999.90;;;;;;;18.93;78.76;101247.88;15318471;29;20075;-63
2021/06/25 03:22:56;;;;;;;1999.90;999.90;;;;;;;18.98;79.16;101261.72;15328186;29;20052;-63
2021/06/25 03:30:28;;;;;;;1999.90;999.90;;;;;;;18.95;79.25;101260.44;15376086;28;20062;-64
2021/06/25 03:38:01;;;;;;;1999.90;999.90;;;;;;;19.08;79.05;101263.13;15346328;29;20044;-64
2021/06/25 03:45:34;;;;;;;1999.90;999.90;;;;;;;19.11;78.67;101262.34;15332259;28;20127;-63
2021/06/25 03:53:07;;;;;;;1999.90;999.90;;;;;;;19.20;78.33;101258.06;15340423;29;20058;-63
2021/06/25 04:00:39;;;;;;;1999.90;999.90;;;;;;;19.31;78.33;101259.06;15371761;28;20067;-63
2021/06/25 04:08:13;;;;;;;1999.90;999.90;;;;;;;19.30;78.20;101259.44;15348443;29;20047;-63
2021/06/25 04:15:45;;;;;;;1999.90;999.90;;;;;;;19.55;77.34;101274.81;15375696;28;20052;-64
2021/06/25 04:23:19;;;;;;;1999.90;999.90;;;;;;;19.62;76.45;101273.31;15348281;29;20070;-64
2021/06/25 04:30:51;;;;;;;1999.90;999.90;;;;;;;19.69;75.94;101282.69;15347753;28;20047;-64
2021/06/25 04:38:25;;;;;;;1999.90;999.90;;;;;;;19.85;76.16;101291.84;15354389;28;20074;-64
2021/06/25 04:46:00;;;;;;;1999.90;999.90;;;;;;;19.97;75.90;101298.47;15358648;29;20828;-64
2021/06/25 04:53:33;;;;;;;1999.90;999.90;;;;;;;20.15;75.40;101288.22;15325333;29;20050;-64
2021/06/25 05:01:06;;;;;;;1999.90;999.90;;;;;;;20.17;74.29;101292.28;15333981;28;20134;-64
2021/06/25 05:08:39;;;;;;;1999.90;999.90;;;;;;;20.40;73.63;101291.34;15379869;29;20043;-64
2021/06/25 05:16:12;;;;;;;1999.90;999.90;;;;;;;20.60;73.47;101297.69;15347632;28;20058;-63
2021/06/25 05:23:48;;;;;;;1999.90;999.90;;;;;;;20.54;72.79;101300.06;15348847;29;20043;-63
2021/06/25 05:31:20;;;;;;;1999.90;999.90;;;;;;;20.86;72.68;101285.44;15339037;29;20311;-64
2021/06/25 05:38:57;;;;;;;1999.90;999.90;;;;;;;20.77;72.17;101287.75;15351666;29;20046;-64
2021/06/25 05:46:29;;;;;;;1999.90;999.90;;;;;;;20.98;70.69;101282.31;15342072;28;20043;-64
2021/06/25 05:54:03;;;;;;;1999.90;999.90;;;;;;;21.18;69.70;101288.56;15370943;28;20107;-64
2021/06/25 06:01:36;;;;;;;1999.90;999.90;;;;;;;21.64;67.71;101296.66;15362653;28;20071;-63
2021/06/25 06:09:09;;;;;;;1999.90;999.90;;;;;;;21.52;67.93;101306.31;15390978;28;20817;-63
2021/06/25 06:16:41;;;;;;;1999.90;999.90;;;;;;;21.96;66.91;101311.06;15391274;28;20457;-64
2021/06/25 06:32:16;;;;;;;1999.90;999.90;;;;;;;23.06;63.03;101310.75;15332974;29;20047;-64
2021/06/25 06:39:50;;;;;;;1999.90;999.90;;;;;;;23.31;59.25;101320.91;15373974;29;20107;-64
2021/06/25 06:47:22;;;;;;;1999.90;999.90;;;;;;;22.83;57.80;101322.47;15375852;28;20078;-65
2021/06/25 06:54:55;;;;;;;1999.90;999.90;;;;;;;23.16;58.50;101321.34;15375490;28;20043;-64
2021/06/25 07:02:27;;;;;;;1999.90;999.90;;;;;;;22.76;59.52;101334.63;15372681;29;20051;-64
2021/06/25 07:10:01;;;;;;;1999.90;999.90;;;;;;;22.22;60.96;101347.81;15372740;28;20047;-65
2021/06/25 07:17:35;;;;;;;1999.90;999.90;;;;;;;22.12;61.38;101346.53;15356215;29;20054;-63
2021/06/25 07:25:09;;;;;;;1999.90;999.90;;;;;;;22.48;61.02;101347.50;15356687;29;20487;-64
2021/06/25 07:32:41;;;;;;;1999.90;999.90;;;;;;;22.37;60.71;101354.38;15374130;28;20110;-63
2021/06/25 07:40:15;;;;;;;1999.90;999.90;;;;;;;23.25;59.27;101353.06;15372106;29;20079;-64
2021/06/25 07:47:47;;;;;;;1999.90;999.90;;;;;;;24.19;58.45;101347.72;15372050;29;20043;-64
2021/06/25 07:55:21;;;;;;;1999.90;999.90;;;;;;;24.04;56.60;101346.13;15372684;28;20054;-64
2021/06/25 08:02:53;;;;;;;1999.90;999.90;;;;;;;23.80;56.44;101335.59;15372220;29;20126;-64
2021/06/25 08:10:27;;;;;;;1999.90;999.90;;;;;;;23.47;55.42;101336.81;15356088;29;20074;-63
2021/06/25 08:17:59;;;;;;;1999.90;999.90;;;;;;;23.74;54.48;101334.38;15371882;28;20126;-63
2021/06/25 08:25:32;;;;;;;1999.90;999.90;;;;;;;24.43;54.37;101346.03;15372402;28;20074;-64
2021/06/25 08:33:05;;;;;;;1999.90;999.90;;;;;;;24.70;54.12;101343.50;15382954;28;20040;-64
2021/06/25 08:40:38;;;;;;;1999.90;999.90;;;;;;;26.03;50.23;101338.41;15383126;28;20054;-64
2021/06/25 08:48:12;;;;;;;1999.90;999.90;;;;;;;26.59;47.53;101332.50;15381355;29;20054;-65
2021/06/25 08:55:45;;;;;;;1999.90;999.90;;;;;;;26.64;46.59;101327.09;15382187;29;20539;-64
2021/06/25 09:03:22;;;;;;;1999.90;999.90;;;;;;;27.64;44.97;101330.53;15376193;29;20082;-63
2021/06/25 09:10:59;;;;;;;1999.90;999.90;;;;;;;27.17;45.46;101319.81;15382918;28;20385;-64
2021/06/25 09:18:31;;;;;;;1999.90;999.90;;;;;;;26.61;46.58;101313.66;15380724;28;20418;-63
2021/06/25 09:26:09;;;;;;;1999.90;999.90;;;;;;;25.71;47.12;101317.94;15380987;29;20094;-63
2021/06/25 09:33:45;;;;;;;1999.90;999.90;;;;;;;24.88;48.15;101314.03;15379436;29;20051;-64
2021/06/25 09:41:20;;;;;;;1999.90;999.90;;;;;;;24.66;48.55;101310.47;15378013;28;20047;-63
2021/06/25 09:48:55;;;;;;;1999.90;999.90;;;;;;;27.48;44.34;101309.06;15378801;28;20050;-64
2021/06/25 09:56:30;;;;;;;1999.90;999.90;;;;;;;26.82;46.78;101318.28;15376754;29;20051;-65
2021/06/25 10:04:02;;;;;;;1999.90;999.90;;;;;;;25.95;49.01;101316.88;15378010;28;20039;-63
2021/06/25 10:11:36;;;;;;;1999.90;999.90;;;;;;;26.37;46.32;101309.06;15376356;29;20047;-65
2021/06/25 10:19:12;;;;;;;1999.90;999.90;;;;;;;26.01;47.91;101317.22;15375984;28;20047;-64
2021/06/25 10:26:49;;;;;;;1999.90;999.90;;;;;;;25.61;46.94;101316.75;15360095;29;20047;-63
2021/06/25 10:34:21;;;;;;;1999.90;999.90;;;;;;;28.29;41.81;101319.50;15379742;28;20086;-65
2021/06/25 10:41:57;;;;;;;1999.90;999.90;;;;;;;27.41;42.96;101308.38;15384097;29;20098;-63
2021/06/25 10:49:29;;;;;;;1999.90;999.90;;;;;;;27.92;43.24;101312.81;15379194;28;20446;-63
2021/06/25 10:57:09;;;;;;;1999.90;999.90;;;;;;;26.76;42.46;101311.38;15378944;28;20122;-64
2021/06/25 11:04:43;;;;;;;1999.90;999.90;;;;;;;26.23;45.70;101307.16;15377911;29;20051;-64
2021/06/25 11:12:21;;;;;;;1999.90;999.90;;;;;;;25.52;47.49;101314.38;15388269;29;20042;-64
2021/06/25 11:20:18;;;;;;;1999.90;999.90;;;;;;;26.08;45.04;101308.56;15392987;29;20408;-63
2021/06/25 11:28:18;;;;;;;1999.90;999.90;;;;;;;29.68;40.83;101310.56;15392943;28;20055;-65
2021/06/25 11:35:50;;;;;;;1999.90;999.90;;;;;;;28.83;38.80;101311.34;15392029;28;20043;-64
2021/06/25 11:43:24;;;;;;;1999.90;999.90;;;;;;;29.28;39.11;101305.81;15389131;28;20051;-64
2021/06/25 11:50:58;;;;;;;1999.90;999.90;;;;;;;28.35;39.20;101306.28;15405160;28;20094;-63
2021/06/25 11:58:32;;;;;;;1999.90;999.90;;;;;;;28.81;38.70;101298.69;15390676;28;20138;-65
2021/06/25 12:06:05;;;;;;;1999.90;999.90;;;;;;;30.79;36.34;101288.88;15401314;28;20047;-62
2021/06/25 12:13:39;;;;;;;1999.90;999.90;;;;;;;30.52;33.85;101271.19;15398487;29;20628;-64
2021/06/25 12:21:13;;;;;;;1999.90;999.90;;;;;;;29.07;40.18;101277.56;15392983;29;20050;-63
2021/06/25 12:28:48;;;;;;;1999.90;999.90;;;;;;;32.85;30.48;101274.19;15392165;28;20043;-65
2021/06/25 12:36:20;;;;;;;1999.90;999.90;;;;;;;30.90;33.34;101271.25;15381953;29;20079;-64
2021/06/25 12:43:56;;;;;;;1999.90;999.90;;;;;;;30.75;33.27;101256.50;15393497;28;20047;-63
2021/06/25 12:51:30;;;;;;;1999.90;999.90;;;;;;;31.73;30.99;101262.25;15402591;28;20106;-62
2021/06/25 12:59:06;;;;;;;1999.90;999.90;;;;;;;32.73;34.51;101265.09;15396876;28;20090;-62
2021/06/25 13:06:38;;;;;;;1999.90;999.90;;;;;;;32.76;32.48;101269.13;15385125;29;20115;-63
2021/06/25 13:14:12;;;;;;;1999.90;999.90;;;;;;;29.60;36.02;101261.06;15364681;28;20078;-63
2021/06/25 13:22:08;;;;;;;1999.90;999.90;;;;;;;27.28;39.19;101256.59;15331404;29;20044;-64
2021/06/25 13:29:48;;;;;;;1999.90;999.90;;;;;;;29.20;37.66;101260.44;15325946;29;20044;-62
2021/06/25 13:37:24;;;;;;;1999.90;999.90;;;;;;;29.20;37.96;101261.25;15329890;29;20500;-63
2021/06/25 13:45:14;;;;;;;1999.90;999.90;;;;;;;28.69;38.51;101257.13;15334920;29;20143;-62
2021/06/25 13:52:53;;;;;;;1999.90;999.90;;;;;;;29.32;36.14;101248.22;15331674;29;20054;-61
2021/06/25 14:00:33;;;;;;;1999.90;999.90;;;;;;;29.51;36.21;101243.66;15325816;29;20039;-62
2021/06/25 14:08:07;;;;;;;1999.90;999.90;;;;;;;29.01;38.26;101248.56;15325320;29;20122;-61
2021/06/25 14:15:50;;;;;;;1999.90;999.90;;;;;;;28.10;39.30;101244.44;15330410;29;20410;-62
2021/06/25 14:23:22;;;;;;;1999.90;999.90;;;;;;;28.26;38.50;101255.19;15328641;29;20055;-60
2021/06/25 14:30:56;;;;;;;1999.90;999.90;;;;;;;28.92;38.27;101251.25;15328904;29;20462;-62
2021/06/25 14:38:28;;;;;;;1999.90;999.90;;;;;;;28.40;38.82;101251.22;15333924;29;20044;-60
2021/06/25 14:46:04;;;;;;;1999.90;999.90;;;;;;;28.23;39.20;101256.03;15330575;29;20051;-61
2021/06/25 14:53:36;;;;;;;1999.90;999.90;;;;;;;27.93;39.95;101251.34;15331186;29;20078;-62
2021/06/25 15:01:10;;;;;;;1999.90;999.90;;;;;;;27.87;39.92;101258.84;15330849;29;20051;-63
2021/06/25 15:08:42;;;;;;;1999.90;999.90;;;;;;;27.55;39.86;101256.56;15329545;29;20040;-62
2021/06/25 15:16:17;;;;;;;1999.90;999.90;;;;;;;27.51;39.71;101250.06;15327595;29;20058;-61
2021/06/25 15:23:49;;;;;;;1999.90;999.90;;;;;;;27.56;38.19;101246.69;15327386;29;20090;-62
2021/06/25 15:31:25;;;;;;;1999.90;999.90;;;;;;;27.82;40.25;101254.41;15319509;29;20143;-63
2021/06/25 15:38:57;;;;;;;1999.90;999.90;;;;;;;27.19;38.10;101231.38;15326210;29;20044;-62
2021/06/25 15:46:30;;;;;;;1999.90;999.90;;;;;;;27.53;37.56;101230.38;15343138;29;20058;-62
2021/06/25 15:54:05;;;;;;;1999.90;999.90;;;;;;;26.63;38.65;101233.06;15321101;29;20063;-62
2021/06/25 16:01:38;;;;;;;1999.90;999.90;;;;;;;26.22;40.21;101242.59;15335537;29;20107;-62
2021/06/25 16:09:14;;;;;;;1999.90;999.90;;;;;;;26.06;41.63;101231.78;15337854;29;20111;-64
2021/06/25 16:16:48;;;;;;;1999.90;999.90;;;;;;;26.45;41.17;101230.47;15330333;28;20052;-63
2021/06/25 16:24:20;;;;;;;1999.90;999.90;;;;;;;26.30;43.27;101229.03;15360075;29;20504;-62
2021/06/25 16:31:54;;;;;;;1999.90;999.90;;;;;;;26.15;41.39;101242.69;15384535;28;20134;-62
2021/06/25 16:39:26;;;;;;;1999.90;999.90;;;;;;;25.84;42.79;101239.78;15384644;28;20091;-63
2021/06/25 16:46:59;;;;;;;1999.90;999.90;;;;;;;25.71;41.33;101237.91;15365138;28;20521;-63
2021/06/25 16:54:32;;;;;;;1999.90;999.90;;;;;;;25.66;42.25;101241.22;15321898;29;20047;-62
2021/06/25 17:02:05;;;;;;;1999.90;999.90;;;;;;;25.75;41.53;101244.41;15322158;29;20083;-62
2021/06/25 17:09:37;;;;;;;1999.90;999.90;;;;;;;25.64;42.52;101250.22;15320009;29;20111;-61
2021/06/25 17:17:11;;;;;;;1999.90;999.90;;;;;;;25.58;41.91;101249.03;15338861;29;20055;-63
2021/06/25 17:24:44;;;;;;;1999.90;999.90;;;;;;;25.46;42.82;101252.41;15393979;28;20076;-61
2021/06/25 17:32:17;;;;;;;1999.90;999.90;;;;;;;25.33;43.21;101252.94;15366092;28;20071;-63
2021/06/25 17:39:50;;;;;;;1999.90;999.90;;;;;;;25.22;45.11;101265.66;15365507;29;20050;-62
2021/06/25 17:47:23;;;;;;;;;;;;;;;25.19;44.65;101255.91;15345302;29;20060;-62
2021/06/25 17:54:56;;;;;;;1999.90;999.90;;;;;;;25.08;45.95;101272.31;15324503;29;19934;-60
2021/06/25 18:02:29;;;;;;;;;;;;;;;24.93;45.42;101276.50;15317743;29;20142;-61
2021/06/25 18:10:01;;;;;;;1999.90;999.90;;;;;;;24.63;45.96;101266.47;15368304;28;19929;-63
2021/06/25 18:17:35;;;;;;;1999.90;999.90;;;;;;;24.60;46.27;101280.78;15338913;28;20516;-62
2021/06/25 18:25:09;;;;;;;1999.90;999.90;;;;;;;24.63;47.62;101280.75;15320712;28;20047;-60
2021/06/25 18:32:42;;;;;;;1999.90;999.90;;;;;;;24.40;47.36;101284.13;15364537;29;20118;-60
2021/06/25 18:40:16;;;;;;;1999.90;999.90;;;;;;;24.38;48.84;101286.56;15374999;28;20044;-61
2021/06/25 18:47:51;;;;;;;1999.90;999.90;;;;;;;24.38;48.28;101300.00;15334953;28;20190;-61
2021/06/25 18:55:23;;;;;;;1999.90;999.90;;;;;;;24.23;49.20;101290.69;15334498;28;20057;-62
2021/06/25 19:02:57;;;;;;;1999.90;999.90;;;;;;;24.05;49.24;101293.59;15358065;29;20072;-62
2021/06/25 19:10:29;;;;;;;1999.90;999.90;;;;;;;24.07;50.28;101296.03;15368974;29;20138;-61
2021/06/25 19:18:02;;;;;;;1999.90;999.90;;;;;;;24.06;50.05;101303.75;15343428;28;20409;-62
2021/06/25 19:25:35;;;;;;;1999.90;999.90;;;;;;;23.69;49.40;101314.84;15361954;29;20040;-62
2021/06/25 19:33:09;;;;;;;1999.90;999.90;;;;;;;23.89;50.15;101316.84;15343266;28;20051;-62
2021/06/25 19:40:41;;;;;;;1999.90;999.90;;;;;;;23.87;51.64;101325.00;15329250;29;20043;-62
2021/06/25 19:48:15;;;;;;;1999.90;999.90;;;;;;;23.86;49.88;101331.09;15322714;29;20051;-60
2021/06/25 19:55:51;;;;;;;1999.90;999.90;;;;;;;23.71;51.59;101341.69;15354882;28;20048;-62
2021/06/25 20:03:25;;;;;;;1999.90;999.90;;;;;;;23.67;50.10;101334.38;15332051;29;20067;-63
2021/06/25 20:10:57;;;;;;;1999.90;999.90;;;;;;;23.43;50.25;101344.50;15324855;29;20516;-62
2021/06/25 20:18:30;;;;;;;1999.90;999.90;;;;;;;23.66;50.25;101355.56;15346982;29;20058;-61
2021/06/25 20:26:03;;;;;;;1999.90;999.90;;;;;;;23.43;50.31;101353.06;15343087;28;20043;-61
2021/06/25 20:33:36;;;;;;;1999.90;999.90;;;;;;;23.36;50.03;101353.06;15357553;28;20460;-61
2021/06/25 20:41:08;;;;;;;1999.90;999.90;;;;;;;23.31;51.00;101345.72;15342496;28;20067;-61
2021/06/25 20:48:42;;;;;;;1999.90;999.90;;;;;;;23.31;52.32;101351.44;15345237;29;20039;-62
2021/06/25 20:56:15;;;;;;;1999.90;999.90;;;;;;;23.10;52.43;101357.91;15333000;29;20051;-63
2021/06/25 21:03:48;;;;;;;1999.90;999.90;;;;;;;23.01;52.37;101360.31;15378082;29;20082;-62
2021/06/25 21:11:21;;;;;;;1999.90;999.90;;;;;;;22.83;53.13;101360.25;15343118;28;20440;-64
2021/06/25 21:18:54;;;;;;;1999.90;999.90;;;;;;;22.81;53.10;101359.81;15353238;29;20054;-64
2021/06/25 21:26:26;;;;;;;1999.90;999.90;;;;;;;22.72;53.58;101365.91;15349523;28;20047;-61
2021/06/25 21:34:00;;;;;;;1999.90;999.90;;;;;;;22.67;54.07;101368.31;15363674;28;20054;-61
2021/06/25 21:41:32;;;;;;;1999.90;999.90;;;;;;;22.62;55.49;101377.25;15335123;29;20390;-63
2021/06/25 21:49:06;;;;;;;1999.90;999.90;;;;;;;22.61;55.79;101367.88;15348587;28;20047;-62
2021/06/25 21:56:38;;;;;;;1999.90;999.90;;;;;;;22.52;56.14;101376.00;15332236;28;20098;-62
2021/06/25 22:04:11;;;;;;;1999.90;999.90;;;;;;;22.47;56.52;101382.84;15347504;28;20051;-63
2021/06/25 22:11:44;;;;;;;1999.90;999.90;;;;;;;22.34;57.10;101381.56;15364872;28;20055;-61
2021/06/25 22:19:17;;;;;;;1999.90;999.90;;;;;;;22.20;56.92;101384.34;15356474;28;20122;-61
2021/06/25 22:26:49;;;;;;;1999.90;999.90;;;;;;;22.29;58.13;101386.81;15331795;29;20536;-61
2021/06/25 22:34:24;;;;;;;1999.90;999.90;;;;;;;22.21;57.00;101393.69;15376494;23;20075;-57
2021/06/25 22:41:57;;;;;;;1999.90;999.90;;;;;;;22.16;57.39;101392.84;15309120;29;20139;-57
2021/06/25 22:49:31;;;;;;;1999.90;999.90;;;;;;;22.10;56.87;101410.66;15216159;29;20132;-58
2021/06/25 22:57:04;;;;;;;1999.90;999.90;;;;;;;22.09;57.31;101400.50;15212546;29;20537;-58
2021/06/25 23:04:37;;;;;;;;;;;;;;;22.16;57.44;101398.50;15227817;29;20036;-56
2021/06/25 23:12:10;;;;;;;1999.90;999.90;;;;;;;21.95;57.14;101411.72;15242533;29;20027;-56
2021/06/25 23:19:43;;;;;;;;;;;;;;;21.87;57.19;101396.66;15212143;29;20076;-59
2021/06/25 23:27:16;;;;;;;1999.90;999.90;;;;;;;21.87;57.53;101397.47;15245560;29;19927;-58
2021/06/25 23:34:49;;;;;;;1999.90;999.90;;;;;;;21.84;57.93;101403.94;15231918;29;20044;-59
2021/06/25 23:42:22;;;;;;;1999.90;999.90;;;;;;;21.79;58.33;101397.81;15217376;29;20119;-59
2021/06/25 23:49:56;;;;;;;1999.90;999.90;;;;;;;21.73;58.05;101405.06;15249663;29;20131;-59
2021/06/25 23:57:28;;;;;;;1999.90;999.90;;;;;;;21.55;58.60;101385.84;15253040;29;20131;-58
